sensor_id;sensor_type;location;lat;lon;timestamp;temperature;humidity
25438;DHT22;13364;49.084;9.978;2023-07-02T00:00:10;16.40;100.00
25438;DHT22;13364;49.084;9.978;2023-07-02T00:02:37;16.40;99.60
25438;DHT22;13364;49.084;9.978;2023-07-02T00:05:06;16.60;98.90
25438;DHT22;13364;49.084;9.978;2023-07-02T00:07:34;16.60;98.40
25438;DHT22;13364;49.084;9.978;2023-07-02T00:10:04;16.70;97.80
25438;DHT22;13364;49.084;9.978;2023-07-02T00:12:31;16.70;97.50
25438;DHT22;13364;49.084;9.978;2023-07-02T00:14:58;16.70;97.00
25438;DHT22;13364;49.084;9.978;2023-07-02T00:17:25;16.80;96.90
25438;DHT22;13364;49.084;9.978;2023-07-02T00:19:52;16.80;96.20
25438;DHT22;13364;49.084;9.978;2023-07-02T00:22:20;16.80;95.70
25438;DHT22;13364;49.084;9.978;2023-07-02T00:24:47;16.70;95.40
25438;DHT22;13364;49.084;9.978;2023-07-02T00:27:15;16.70;95.70
25438;DHT22;13364;49.084;9.978;2023-07-02T00:29:42;16.60;96.00
25438;DHT22;13364;49.084;9.978;2023-07-02T00:32:09;16.60;96.00
25438;DHT22;13364;49.084;9.978;2023-07-02T00:34:36;16.60;95.80
25438;DHT22;13364;49.084;9.978;2023-07-02T00:37:03;16.60;95.60
25438;DHT22;13364;49.084;9.978;2023-07-02T00:39:30;16.60;95.60
25438;DHT22;13364;49.084;9.978;2023-07-02T00:42:01;16.60;95.60
25438;DHT22;13364;49.084;9.978;2023-07-02T00:44:30;16.60;95.60
25438;DHT22;13364;49.084;9.978;2023-07-02T00:46:57;16.60;95.40
25438;DHT22;13364;49.084;9.978;2023-07-02T00:49:25;16.60;95.30
25438;DHT22;13364;49.084;9.978;2023-07-02T00:51:52;16.50;95.40
25438;DHT22;13364;49.084;9.978;2023-07-02T00:54:20;16.50;95.30
25438;DHT22;13364;49.084;9.978;2023-07-02T00:56:47;16.50;95.00
25438;DHT22;13364;49.084;9.978;2023-07-02T00:59:14;16.50;94.80
25438;DHT22;13364;49.084;9.978;2023-07-02T01:01:42;16.50;94.70
25438;DHT22;13364;49.084;9.978;2023-07-02T01:04:09;16.50;94.50
25438;DHT22;13364;49.084;9.978;2023-07-02T01:06:37;16.50;94.30
25438;DHT22;13364;49.084;9.978;2023-07-02T01:09:08;16.50;94.00
25438;DHT22;13364;49.084;9.978;2023-07-02T01:11:44;16.40;94.00
25438;DHT22;13364;49.084;9.978;2023-07-02T01:14:41;16.40;93.80
25438;DHT22;13364;49.084;9.978;2023-07-02T01:17:07;16.40;93.50
25438;DHT22;13364;49.084;9.978;2023-07-02T01:19:42;16.30;93.70
25438;DHT22;13364;49.084;9.978;2023-07-02T01:22:11;16.30;93.50
25438;DHT22;13364;49.084;9.978;2023-07-02T01:24:39;16.30;93.40
25438;DHT22;13364;49.084;9.978;2023-07-02T01:27:07;16.20;93.60
25438;DHT22;13364;49.084;9.978;2023-07-02T01:29:37;16.20;93.80
25438;DHT22;13364;49.084;9.978;2023-07-02T01:32:04;16.10;93.40
25438;DHT22;13364;49.084;9.978;2023-07-02T01:34:32;16.10;93.60
25438;DHT22;13364;49.084;9.978;2023-07-02T01:36:59;16.10;94.00
25438;DHT22;13364;49.084;9.978;2023-07-02T01:39:26;16.00;94.10
25438;DHT22;13364;49.084;9.978;2023-07-02T01:41:55;16.00;94.00
25438;DHT22;13364;49.084;9.978;2023-07-02T01:44:22;16.00;94.20
25438;DHT22;13364;49.084;9.978;2023-07-02T01:46:49;16.10;93.80
25438;DHT22;13364;49.084;9.978;2023-07-02T01:49:18;16.10;93.70
25438;DHT22;13364;49.084;9.978;2023-07-02T01:51:50;16.10;93.50
25438;DHT22;13364;49.084;9.978;2023-07-02T01:54:21;16.00;93.60
25438;DHT22;13364;49.084;9.978;2023-07-02T01:56:49;16.00;93.50
25438;DHT22;13364;49.084;9.978;2023-07-02T01:59:17;16.00;93.50
25438;DHT22;13364;49.084;9.978;2023-07-02T02:01:44;16.00;93.00
25438;DHT22;13364;49.084;9.978;2023-07-02T02:04:11;15.90;92.60
25438;DHT22;13364;49.084;9.978;2023-07-02T02:06:39;15.90;92.70
25438;DHT22;13364;49.084;9.978;2023-07-02T02:09:07;15.90;93.00
25438;DHT22;13364;49.084;9.978;2023-07-02T02:11:40;15.90;93.00
25438;DHT22;13364;49.084;9.978;2023-07-02T02:14:07;15.80;92.90
25438;DHT22;13364;49.084;9.978;2023-07-02T02:16:34;15.80;92.90
25438;DHT22;13364;49.084;9.978;2023-07-02T02:19:02;15.80;93.20
25438;DHT22;13364;49.084;9.978;2023-07-02T02:21:30;15.70;93.20
25438;DHT22;13364;49.084;9.978;2023-07-02T02:23:57;15.70;93.20
25438;DHT22;13364;49.084;9.978;2023-07-02T02:26:26;15.60;93.40
25438;DHT22;13364;49.084;9.978;2023-07-02T02:28:53;15.60;93.40
25438;DHT22;13364;49.084;9.978;2023-07-02T02:35:39;15.60;93.20
25438;DHT22;13364;49.084;9.978;2023-07-02T02:38:06;15.50;93.10
25438;DHT22;13364;49.084;9.978;2023-07-02T02:40:33;15.40;93.20
25438;DHT22;13364;49.084;9.978;2023-07-02T02:43:02;15.40;93.60
25438;DHT22;13364;49.084;9.978;2023-07-02T02:45:29;15.50;93.50
25438;DHT22;13364;49.084;9.978;2023-07-02T02:47:56;15.50;93.50
25438;DHT22;13364;49.084;9.978;2023-07-02T02:50:23;15.50;93.60
25438;DHT22;13364;49.084;9.978;2023-07-02T02:52:50;15.40;93.60
25438;DHT22;13364;49.084;9.978;2023-07-02T02:55:17;15.40;93.60
25438;DHT22;13364;49.084;9.978;2023-07-02T02:57:44;15.40;93.60
25438;DHT22;13364;49.084;9.978;2023-07-02T03:00:12;15.40;93.80
25438;DHT22;13364;49.084;9.978;2023-07-02T03:02:39;15.30;93.90
25438;DHT22;13364;49.084;9.978;2023-07-02T03:05:06;15.30;94.10
25438;DHT22;13364;49.084;9.978;2023-07-02T03:07:34;15.30;94.00
25438;DHT22;13364;49.084;9.978;2023-07-02T03:10:02;15.30;93.90
25438;DHT22;13364;49.084;9.978;2023-07-02T03:12:29;15.40;93.60
25438;DHT22;13364;49.084;9.978;2023-07-02T03:14:56;15.40;93.10
25438;DHT22;13364;49.084;9.978;2023-07-02T03:17:24;15.30;93.20
25438;DHT22;13364;49.084;9.978;2023-07-02T03:19:51;15.20;93.50
25438;DHT22;13364;49.084;9.978;2023-07-02T03:22:18;15.20;93.50
25438;DHT22;13364;49.084;9.978;2023-07-02T03:24:45;15.30;93.70
25438;DHT22;13364;49.084;9.978;2023-07-02T03:27:16;15.20;94.00
25438;DHT22;13364;49.084;9.978;2023-07-02T03:29:43;15.20;94.50
25438;DHT22;13364;49.084;9.978;2023-07-02T03:32:10;15.20;95.00
25438;DHT22;13364;49.084;9.978;2023-07-02T03:34:37;15.20;95.40
25438;DHT22;13364;49.084;9.978;2023-07-02T03:37:04;15.20;95.70
25438;DHT22;13364;49.084;9.978;2023-07-02T03:39:31;15.20;95.90
25438;DHT22;13364;49.084;9.978;2023-07-02T03:41:58;15.20;96.00
25438;DHT22;13364;49.084;9.978;2023-07-02T03:44:25;15.10;96.30
25438;DHT22;13364;49.084;9.978;2023-07-02T03:46:53;15.10;96.50
25438;DHT22;13364;49.084;9.978;2023-07-02T03:49:20;15.10;96.40
25438;DHT22;13364;49.084;9.978;2023-07-02T03:51:47;15.10;96.00
25438;DHT22;13364;49.084;9.978;2023-07-02T03:54:14;15.10;95.80
25438;DHT22;13364;49.084;9.978;2023-07-02T03:56:41;15.10;95.20
25438;DHT22;13364;49.084;9.978;2023-07-02T03:59:08;15.10;94.70
25438;DHT22;13364;49.084;9.978;2023-07-02T04:01:35;15.10;94.60
25438;DHT22;13364;49.084;9.978;2023-07-02T04:04:02;15.10;94.20
25438;DHT22;13364;49.084;9.978;2023-07-02T04:06:30;15.10;93.90
25438;DHT22;13364;49.084;9.978;2023-07-02T04:08:57;15.10;93.20
25438;DHT22;13364;49.084;9.978;2023-07-02T04:11:24;15.20;93.00
25438;DHT22;13364;49.084;9.978;2023-07-02T04:13:51;15.20;91.80
25438;DHT22;13364;49.084;9.978;2023-07-02T04:16:19;15.20;91.50
25438;DHT22;13364;49.084;9.978;2023-07-02T04:18:46;15.10;90.50
25438;DHT22;13364;49.084;9.978;2023-07-02T04:21:13;15.00;89.70
25438;DHT22;13364;49.084;9.978;2023-07-02T04:23:40;14.80;89.10
25438;DHT22;13364;49.084;9.978;2023-07-02T04:26:07;14.70;88.80
25438;DHT22;13364;49.084;9.978;2023-07-02T04:28:55;14.60;89.10
25438;DHT22;13364;49.084;9.978;2023-07-02T04:31:22;14.60;89.30
25438;DHT22;13364;49.084;9.978;2023-07-02T04:33:49;14.50;89.50
25438;DHT22;13364;49.084;9.978;2023-07-02T04:36:16;14.50;89.40
25438;DHT22;13364;49.084;9.978;2023-07-02T04:38:43;14.40;89.70
25438;DHT22;13364;49.084;9.978;2023-07-02T04:41:10;14.40;90.00
25438;DHT22;13364;49.084;9.978;2023-07-02T04:43:37;14.40;90.20
25438;DHT22;13364;49.084;9.978;2023-07-02T04:46:04;14.50;90.30
25438;DHT22;13364;49.084;9.978;2023-07-02T04:48:34;14.50;90.30
25438;DHT22;13364;49.084;9.978;2023-07-02T04:51:01;14.50;90.80
25438;DHT22;13364;49.084;9.978;2023-07-02T04:53:29;14.60;91.00
25438;DHT22;13364;49.084;9.978;2023-07-02T04:55:56;14.60;91.40
25438;DHT22;13364;49.084;9.978;2023-07-02T04:58:27;14.60;91.50
25438;DHT22;13364;49.084;9.978;2023-07-02T05:00:54;14.60;91.90
25438;DHT22;13364;49.084;9.978;2023-07-02T05:03:21;14.60;92.30
25438;DHT22;13364;49.084;9.978;2023-07-02T05:05:48;14.60;92.30
25438;DHT22;13364;49.084;9.978;2023-07-02T05:08:15;14.60;92.70
25438;DHT22;13364;49.084;9.978;2023-07-02T05:10:42;14.60;93.30
25438;DHT22;13364;49.084;9.978;2023-07-02T05:13:09;14.60;93.30
25438;DHT22;13364;49.084;9.978;2023-07-02T05:15:36;14.60;93.70
25438;DHT22;13364;49.084;9.978;2023-07-02T05:18:03;14.50;94.20
25438;DHT22;13364;49.084;9.978;2023-07-02T05:20:30;14.40;95.00
25438;DHT22;13364;49.084;9.978;2023-07-02T05:22:57;14.40;95.80
25438;DHT22;13364;49.084;9.978;2023-07-02T05:25:24;14.40;96.10
25438;DHT22;13364;49.084;9.978;2023-07-02T05:27:51;14.50;96.20
25438;DHT22;13364;49.084;9.978;2023-07-02T05:30:18;14.50;96.20
25438;DHT22;13364;49.084;9.978;2023-07-02T05:32:45;14.60;96.20
25438;DHT22;13364;49.084;9.978;2023-07-02T05:35:13;14.60;96.00
25438;DHT22;13364;49.084;9.978;2023-07-02T05:37:40;14.70;95.90
25438;DHT22;13364;49.084;9.978;2023-07-02T05:40:07;14.70;95.90
25438;DHT22;13364;49.084;9.978;2023-07-02T05:42:35;14.60;96.10
25438;DHT22;13364;49.084;9.978;2023-07-02T05:45:03;14.60;96.40
25438;DHT22;13364;49.084;9.978;2023-07-02T05:47:30;14.70;96.50
25438;DHT22;13364;49.084;9.978;2023-07-02T05:49:57;14.70;96.50
25438;DHT22;13364;49.084;9.978;2023-07-02T05:52:24;14.80;96.30
25438;DHT22;13364;49.084;9.978;2023-07-02T05:54:51;14.90;95.60
25438;DHT22;13364;49.084;9.978;2023-07-02T05:57:18;14.90;95.80
25438;DHT22;13364;49.084;9.978;2023-07-02T05:59:46;15.00;95.40
25438;DHT22;13364;49.084;9.978;2023-07-02T06:02:13;15.00;95.00
25438;DHT22;13364;49.084;9.978;2023-07-02T06:07:45;15.00;94.90
25438;DHT22;13364;49.084;9.978;2023-07-02T06:10:12;14.90;94.70
25438;DHT22;13364;49.084;9.978;2023-07-02T06:12:39;14.90;95.40
25438;DHT22;13364;49.084;9.978;2023-07-02T06:15:07;15.10;95.60
25438;DHT22;13364;49.084;9.978;2023-07-02T06:17:34;15.20;94.90
25438;DHT22;13364;49.084;9.978;2023-07-02T06:20:03;15.20;93.40
25438;DHT22;13364;49.084;9.978;2023-07-02T06:22:34;15.20;93.80
25438;DHT22;13364;49.084;9.978;2023-07-02T06:25:01;15.30;92.30
25438;DHT22;13364;49.084;9.978;2023-07-02T06:27:31;15.30;91.60
25438;DHT22;13364;49.084;9.978;2023-07-02T06:29:58;15.30;90.70
25438;DHT22;13364;49.084;9.978;2023-07-02T06:32:25;15.40;90.70
25438;DHT22;13364;49.084;9.978;2023-07-02T06:34:52;15.50;90.10
25438;DHT22;13364;49.084;9.978;2023-07-02T06:37:20;15.60;89.60
25438;DHT22;13364;49.084;9.978;2023-07-02T06:40:05;15.70;87.50
25438;DHT22;13364;49.084;9.978;2023-07-02T06:42:32;15.70;87.50
25438;DHT22;13364;49.084;9.978;2023-07-02T06:44:59;15.70;84.40
25438;DHT22;13364;49.084;9.978;2023-07-02T06:47:27;15.70;82.70
25438;DHT22;13364;49.084;9.978;2023-07-02T06:49:54;15.70;83.30
25438;DHT22;13364;49.084;9.978;2023-07-02T06:52:21;15.80;83.10
25438;DHT22;13364;49.084;9.978;2023-07-02T06:54:48;15.80;81.50
25438;DHT22;13364;49.084;9.978;2023-07-02T06:57:15;15.90;81.20
25438;DHT22;13364;49.084;9.978;2023-07-02T06:59:42;15.90;82.30
25438;DHT22;13364;49.084;9.978;2023-07-02T07:02:09;16.00;80.20
25438;DHT22;13364;49.084;9.978;2023-07-02T07:04:37;16.10;80.40
25438;DHT22;13364;49.084;9.978;2023-07-02T07:07:04;16.20;80.10
25438;DHT22;13364;49.084;9.978;2023-07-02T07:09:31;16.30;80.00
25438;DHT22;13364;49.084;9.978;2023-07-02T07:11:58;16.40;79.20
25438;DHT22;13364;49.084;9.978;2023-07-02T07:14:25;16.50;80.40
25438;DHT22;13364;49.084;9.978;2023-07-02T07:16:52;16.60;80.20
25438;DHT22;13364;49.084;9.978;2023-07-02T07:19:19;16.80;77.80
25438;DHT22;13364;49.084;9.978;2023-07-02T07:21:46;16.80;77.50
25438;DHT22;13364;49.084;9.978;2023-07-02T07:24:14;16.90;75.40
25438;DHT22;13364;49.084;9.978;2023-07-02T07:26:41;16.90;74.90
25438;DHT22;13364;49.084;9.978;2023-07-02T07:29:08;17.00;74.40
25438;DHT22;13364;49.084;9.978;2023-07-02T07:31:35;17.10;71.70
25438;DHT22;13364;49.084;9.978;2023-07-02T07:34:02;17.10;71.30
25438;DHT22;13364;49.084;9.978;2023-07-02T07:36:29;17.10;71.10
25438;DHT22;13364;49.084;9.978;2023-07-02T07:38:56;17.10;71.30
25438;DHT22;13364;49.084;9.978;2023-07-02T07:41:25;17.20;72.70
25438;DHT22;13364;49.084;9.978;2023-07-02T07:43:52;17.30;72.20
25438;DHT22;13364;49.084;9.978;2023-07-02T07:46:19;17.40;71.50
25438;DHT22;13364;49.084;9.978;2023-07-02T07:48:50;17.40;70.50
25438;DHT22;13364;49.084;9.978;2023-07-02T07:51:17;17.50;71.40
25438;DHT22;13364;49.084;9.978;2023-07-02T07:53:44;17.50;71.60
25438;DHT22;13364;49.084;9.978;2023-07-02T07:56:11;17.60;70.80
25438;DHT22;13364;49.084;9.978;2023-07-02T07:58:38;17.70;71.10
25438;DHT22;13364;49.084;9.978;2023-07-02T08:01:05;17.80;69.40
25438;DHT22;13364;49.084;9.978;2023-07-02T08:03:32;17.90;69.00
25438;DHT22;13364;49.084;9.978;2023-07-02T08:06:00;17.90;69.60
25438;DHT22;13364;49.084;9.978;2023-07-02T08:08:27;18.00;69.00
25438;DHT22;13364;49.084;9.978;2023-07-02T08:10:54;18.10;67.90
25438;DHT22;13364;49.084;9.978;2023-07-02T08:13:21;18.10;66.40
25438;DHT22;13364;49.084;9.978;2023-07-02T08:15:48;18.00;66.50
25438;DHT22;13364;49.084;9.978;2023-07-02T08:18:15;18.00;67.10
25438;DHT22;13364;49.084;9.978;2023-07-02T08:20:42;18.10;67.30
25438;DHT22;13364;49.084;9.978;2023-07-02T08:23:09;18.30;66.50
25438;DHT22;13364;49.084;9.978;2023-07-02T08:25:36;18.40;65.60
25438;DHT22;13364;49.084;9.978;2023-07-02T08:28:03;18.60;65.60
25438;DHT22;13364;49.084;9.978;2023-07-02T08:30:30;18.80;64.70
25438;DHT22;13364;49.084;9.978;2023-07-02T08:32:57;19.00;62.60
25438;DHT22;13364;49.084;9.978;2023-07-02T08:35:24;19.10;61.80
25438;DHT22;13364;49.084;9.978;2023-07-02T08:37:51;19.10;60.80
25438;DHT22;13364;49.084;9.978;2023-07-02T08:40:19;19.00;60.40
25438;DHT22;13364;49.084;9.978;2023-07-02T08:42:47;18.90;61.90
25438;DHT22;13364;49.084;9.978;2023-07-02T08:45:15;19.00;60.70
25438;DHT22;13364;49.084;9.978;2023-07-02T08:47:45;19.10;62.20
25438;DHT22;13364;49.084;9.978;2023-07-02T08:50:13;19.40;62.00
25438;DHT22;13364;49.084;9.978;2023-07-02T08:52:41;19.60;59.50
25438;DHT22;13364;49.084;9.978;2023-07-02T08:55:09;19.70;59.10
25438;DHT22;13364;49.084;9.978;2023-07-02T08:57:36;19.70;59.10
25438;DHT22;13364;49.084;9.978;2023-07-02T09:00:08;19.80;60.20
25438;DHT22;13364;49.084;9.978;2023-07-02T09:02:36;19.90;58.40
25438;DHT22;13364;49.084;9.978;2023-07-02T09:05:04;20.00;57.30
25438;DHT22;13364;49.084;9.978;2023-07-02T09:07:31;20.10;57.70
25438;DHT22;13364;49.084;9.978;2023-07-02T09:09:58;20.10;57.60
25438;DHT22;13364;49.084;9.978;2023-07-02T09:12:26;20.10;57.00
25438;DHT22;13364;49.084;9.978;2023-07-02T09:15:14;20.00;56.20
25438;DHT22;13364;49.084;9.978;2023-07-02T09:17:41;20.10;56.50
25438;DHT22;13364;49.084;9.978;2023-07-02T09:20:08;20.20;56.50
25438;DHT22;13364;49.084;9.978;2023-07-02T09:22:36;20.20;55.30
25438;DHT22;13364;49.084;9.978;2023-07-02T09:25:04;20.20;55.40
25438;DHT22;13364;49.084;9.978;2023-07-02T09:27:41;20.20;55.80
25438;DHT22;13364;49.084;9.978;2023-07-02T09:30:14;20.30;55.90
25438;DHT22;13364;49.084;9.978;2023-07-02T09:32:44;20.30;54.90
25438;DHT22;13364;49.084;9.978;2023-07-02T09:35:14;20.20;56.00
25438;DHT22;13364;49.084;9.978;2023-07-02T09:37:43;20.30;55.90
25438;DHT22;13364;49.084;9.978;2023-07-02T09:40:12;20.30;53.70
25438;DHT22;13364;49.084;9.978;2023-07-02T09:42:39;20.40;54.10
25438;DHT22;13364;49.084;9.978;2023-07-02T09:45:08;20.50;55.20
25438;DHT22;13364;49.084;9.978;2023-07-02T09:47:38;20.80;56.00
25438;DHT22;13364;49.084;9.978;2023-07-02T09:50:08;21.00;53.30
25438;DHT22;13364;49.084;9.978;2023-07-02T09:52:37;21.20;54.00
25438;DHT22;13364;49.084;9.978;2023-07-02T09:55:05;21.40;54.20
25438;DHT22;13364;49.084;9.978;2023-07-02T09:57:33;21.70;54.30
25438;DHT22;13364;49.084;9.978;2023-07-02T10:00:03;22.00;51.80
25438;DHT22;13364;49.084;9.978;2023-07-02T10:02:32;22.10;50.70
25438;DHT22;13364;49.084;9.978;2023-07-02T10:04:59;22.20;50.20
25438;DHT22;13364;49.084;9.978;2023-07-02T10:07:31;22.20;51.20
25438;DHT22;13364;49.084;9.978;2023-07-02T10:10:01;22.40;51.00
25438;DHT22;13364;49.084;9.978;2023-07-02T10:12:29;22.60;50.30
25438;DHT22;13364;49.084;9.978;2023-07-02T10:14:58;22.60;50.40
25438;DHT22;13364;49.084;9.978;2023-07-02T10:17:30;22.70;49.70
25438;DHT22;13364;49.084;9.978;2023-07-02T10:20:03;22.80;49.40
25438;DHT22;13364;49.084;9.978;2023-07-02T10:28:32;22.80;49.90
25438;DHT22;13364;49.084;9.978;2023-07-02T10:30:59;22.90;50.00
25438;DHT22;13364;49.084;9.978;2023-07-02T10:33:26;22.80;49.50
25438;DHT22;13364;49.084;9.978;2023-07-02T10:35:53;22.70;49.40
25438;DHT22;13364;49.084;9.978;2023-07-02T10:38:21;22.70;51.10
25438;DHT22;13364;49.084;9.978;2023-07-02T10:41:00;22.80;50.90
25438;DHT22;13364;49.084;9.978;2023-07-02T10:43:28;22.80;49.60
25438;DHT22;13364;49.084;9.978;2023-07-02T10:45:58;22.80;49.30
25438;DHT22;13364;49.084;9.978;2023-07-02T10:48:30;22.60;49.20
25438;DHT22;13364;49.084;9.978;2023-07-02T10:50:57;22.50;49.50
25438;DHT22;13364;49.084;9.978;2023-07-02T10:53:25;22.50;49.60
25438;DHT22;13364;49.084;9.978;2023-07-02T10:55:56;22.50;48.60
25438;DHT22;13364;49.084;9.978;2023-07-02T10:58:25;22.30;48.80
25438;DHT22;13364;49.084;9.978;2023-07-02T11:00:52;22.20;50.00
25438;DHT22;13364;49.084;9.978;2023-07-02T11:03:22;22.20;49.90
25438;DHT22;13364;49.084;9.978;2023-07-02T11:05:50;22.10;49.50
25438;DHT22;13364;49.084;9.978;2023-07-02T11:08:19;22.10;49.60
25438;DHT22;13364;49.084;9.978;2023-07-02T11:10:48;22.10;49.80
25438;DHT22;13364;49.084;9.978;2023-07-02T11:13:17;22.20;50.40
25438;DHT22;13364;49.084;9.978;2023-07-02T11:15:45;22.40;50.30
25438;DHT22;13364;49.084;9.978;2023-07-02T11:18:18;22.60;50.50
25438;DHT22;13364;49.084;9.978;2023-07-02T11:20:48;22.70;48.80
25438;DHT22;13364;49.084;9.978;2023-07-02T11:23:22;22.80;49.00
25438;DHT22;13364;49.084;9.978;2023-07-02T11:25:57;22.80;49.40
25438;DHT22;13364;49.084;9.978;2023-07-02T11:28:25;23.00;48.30
25438;DHT22;13364;49.084;9.978;2023-07-02T11:30:53;23.10;48.90
25438;DHT22;13364;49.084;9.978;2023-07-02T11:33:32;23.10;48.50
25438;DHT22;13364;49.084;9.978;2023-07-02T11:35:59;23.30;49.80
25438;DHT22;13364;49.084;9.978;2023-07-02T11:38:26;23.40;48.10
25438;DHT22;13364;49.084;9.978;2023-07-02T11:40:53;23.70;47.90
25438;DHT22;13364;49.084;9.978;2023-07-02T11:43:21;23.90;46.80
25438;DHT22;13364;49.084;9.978;2023-07-02T11:45:48;24.20;48.50
25438;DHT22;13364;49.084;9.978;2023-07-02T11:48:16;24.30;45.50
25438;DHT22;13364;49.084;9.978;2023-07-02T11:50:43;24.30;46.20
25438;DHT22;13364;49.084;9.978;2023-07-02T11:53:10;24.30;45.40
25438;DHT22;13364;49.084;9.978;2023-07-02T11:55:37;24.20;45.50
25438;DHT22;13364;49.084;9.978;2023-07-02T11:58:04;24.10;44.60
25438;DHT22;13364;49.084;9.978;2023-07-02T12:00:31;23.90;45.10
25438;DHT22;13364;49.084;9.978;2023-07-02T12:02:58;23.70;45.20
25438;DHT22;13364;49.084;9.978;2023-07-02T12:05:25;23.50;45.40
25438;DHT22;13364;49.084;9.978;2023-07-02T12:07:52;23.50;47.60
25438;DHT22;13364;49.084;9.978;2023-07-02T12:10:20;23.60;46.30
25438;DHT22;13364;49.084;9.978;2023-07-02T12:16:05;24.00;47.00
25438;DHT22;13364;49.084;9.978;2023-07-02T12:18:32;24.30;46.30
25438;DHT22;13364;49.084;9.978;2023-07-02T12:20:59;24.40;45.40
25438;DHT22;13364;49.084;9.978;2023-07-02T12:23:26;24.60;46.70
25438;DHT22;13364;49.084;9.978;2023-07-02T12:25:53;24.70;44.40
25438;DHT22;13364;49.084;9.978;2023-07-02T12:28:22;24.70;45.20
25438;DHT22;13364;49.084;9.978;2023-07-02T12:30:52;24.60;44.10
25438;DHT22;13364;49.084;9.978;2023-07-02T12:33:19;24.60;45.90
25438;DHT22;13364;49.084;9.978;2023-07-02T12:35:46;24.60;45.30
25438;DHT22;13364;49.084;9.978;2023-07-02T12:38:14;24.60;44.10
25438;DHT22;13364;49.084;9.978;2023-07-02T12:40:41;24.70;46.60
25438;DHT22;13364;49.084;9.978;2023-07-02T12:43:09;24.90;44.30
25438;DHT22;13364;49.084;9.978;2023-07-02T12:45:36;25.00;44.10
25438;DHT22;13364;49.084;9.978;2023-07-02T12:48:03;25.10;44.60
25438;DHT22;13364;49.084;9.978;2023-07-02T12:50:31;25.10;43.70
25438;DHT22;13364;49.084;9.978;2023-07-02T12:52:58;25.00;44.90
25438;DHT22;13364;49.084;9.978;2023-07-02T12:59:51;25.20;44.40
25438;DHT22;13364;49.084;9.978;2023-07-02T13:02:18;25.30;42.90
25438;DHT22;13364;49.084;9.978;2023-07-02T13:04:45;25.10;43.20
25438;DHT22;13364;49.084;9.978;2023-07-02T13:07:35;24.90;43.40
25438;DHT22;13364;49.084;9.978;2023-07-02T13:10:03;24.80;44.50
25438;DHT22;13364;49.084;9.978;2023-07-02T13:12:30;24.90;44.40
25438;DHT22;13364;49.084;9.978;2023-07-02T13:18:17;25.10;44.60
25438;DHT22;13364;49.084;9.978;2023-07-02T13:20:44;25.30;44.00
25438;DHT22;13364;49.084;9.978;2023-07-02T13:23:12;25.50;44.60
25438;DHT22;13364;49.084;9.978;2023-07-02T13:25:39;25.70;43.40
25438;DHT22;13364;49.084;9.978;2023-07-02T13:28:06;25.90;44.70
25438;DHT22;13364;49.084;9.978;2023-07-02T13:30:33;26.10;43.60
25438;DHT22;13364;49.084;9.978;2023-07-02T13:33:00;26.10;42.90
25438;DHT22;13364;49.084;9.978;2023-07-02T13:35:28;26.00;41.00
25438;DHT22;13364;49.084;9.978;2023-07-02T13:37:55;25.70;41.40
25438;DHT22;13364;49.084;9.978;2023-07-02T13:40:22;25.40;43.00
25438;DHT22;13364;49.084;9.978;2023-07-02T13:42:50;25.40;42.90
25438;DHT22;13364;49.084;9.978;2023-07-02T13:45:31;25.40;43.20
25438;DHT22;13364;49.084;9.978;2023-07-02T13:47:58;25.50;42.20
25438;DHT22;13364;49.084;9.978;2023-07-02T13:50:25;25.70;43.00
25438;DHT22;13364;49.084;9.978;2023-07-02T13:56:11;26.00;43.00
25438;DHT22;13364;49.084;9.978;2023-07-02T14:01:54;26.20;41.20
25438;DHT22;13364;49.084;9.978;2023-07-02T14:04:22;26.20;41.40
25438;DHT22;13364;49.084;9.978;2023-07-02T14:06:49;26.30;42.00
25438;DHT22;13364;49.084;9.978;2023-07-02T14:09:16;26.30;40.20
25438;DHT22;13364;49.084;9.978;2023-07-02T14:11:44;26.20;41.30
25438;DHT22;13364;49.084;9.978;2023-07-02T14:14:11;26.20;41.30
25438;DHT22;13364;49.084;9.978;2023-07-02T14:16:41;26.20;41.60
25438;DHT22;13364;49.084;9.978;2023-07-02T14:19:21;26.30;41.00
25438;DHT22;13364;49.084;9.978;2023-07-02T14:21:51;26.30;41.70
25438;DHT22;13364;49.084;9.978;2023-07-02T14:24:18;26.30;41.20
25438;DHT22;13364;49.084;9.978;2023-07-02T14:26:49;26.30;40.60
25438;DHT22;13364;49.084;9.978;2023-07-02T14:29:16;26.40;40.90
25438;DHT22;13364;49.084;9.978;2023-07-02T14:31:43;26.50;41.20
25438;DHT22;13364;49.084;9.978;2023-07-02T14:34:11;26.50;39.40
25438;DHT22;13364;49.084;9.978;2023-07-02T14:36:38;26.40;39.10
25438;DHT22;13364;49.084;9.978;2023-07-02T14:39:05;26.30;39.50
25438;DHT22;13364;49.084;9.978;2023-07-02T14:41:32;26.40;40.10
25438;DHT22;13364;49.084;9.978;2023-07-02T14:44:03;26.40;40.50
25438;DHT22;13364;49.084;9.978;2023-07-02T14:46:31;26.40;40.00
25438;DHT22;13364;49.084;9.978;2023-07-02T14:48:59;26.50;40.20
25438;DHT22;13364;49.084;9.978;2023-07-02T14:51:26;26.60;39.30
25438;DHT22;13364;49.084;9.978;2023-07-02T14:53:53;26.50;38.50
25438;DHT22;13364;49.084;9.978;2023-07-02T14:56:22;26.20;39.90
25438;DHT22;13364;49.084;9.978;2023-07-02T14:58:49;26.00;39.90
25438;DHT22;13364;49.084;9.978;2023-07-02T15:01:17;25.70;41.00
25438;DHT22;13364;49.084;9.978;2023-07-02T15:03:44;25.60;40.70
25438;DHT22;13364;49.084;9.978;2023-07-02T15:06:16;25.60;41.10
25438;DHT22;13364;49.084;9.978;2023-07-02T15:08:44;25.70;41.00
25438;DHT22;13364;49.084;9.978;2023-07-02T15:11:13;25.70;41.40
25438;DHT22;13364;49.084;9.978;2023-07-02T15:13:40;25.80;41.40
25438;DHT22;13364;49.084;9.978;2023-07-02T15:16:11;25.90;40.60
25438;DHT22;13364;49.084;9.978;2023-07-02T15:18:39;25.90;40.40
25438;DHT22;13364;49.084;9.978;2023-07-02T15:21:06;25.80;41.30
25438;DHT22;13364;49.084;9.978;2023-07-02T15:23:36;25.70;41.00
25438;DHT22;13364;49.084;9.978;2023-07-02T15:26:04;25.80;40.30
25438;DHT22;13364;49.084;9.978;2023-07-02T15:28:33;25.90;40.70
25438;DHT22;13364;49.084;9.978;2023-07-02T15:31:06;26.00;39.00
25438;DHT22;13364;49.084;9.978;2023-07-02T15:33:36;26.10;39.00
25438;DHT22;13364;49.084;9.978;2023-07-02T15:36:04;26.20;39.40
25438;DHT22;13364;49.084;9.978;2023-07-02T15:38:32;26.20;38.70
25438;DHT22;13364;49.084;9.978;2023-07-02T15:41:16;26.10;38.60
25438;DHT22;13364;49.084;9.978;2023-07-02T15:43:44;25.90;39.80
25438;DHT22;13364;49.084;9.978;2023-07-02T15:46:14;25.90;38.70
25438;DHT22;13364;49.084;9.978;2023-07-02T15:48:42;25.90;39.80
25438;DHT22;13364;49.084;9.978;2023-07-02T15:51:09;25.90;39.40
25438;DHT22;13364;49.084;9.978;2023-07-02T15:53:39;26.00;38.80
25438;DHT22;13364;49.084;9.978;2023-07-02T15:56:06;26.10;38.90
25438;DHT22;13364;49.084;9.978;2023-07-02T15:58:34;26.00;38.70
25438;DHT22;13364;49.084;9.978;2023-07-02T16:01:28;26.10;39.20
25438;DHT22;13364;49.084;9.978;2023-07-02T16:04:04;26.20;39.40
25438;DHT22;13364;49.084;9.978;2023-07-02T16:06:34;26.30;39.10